Accueil
METAR-TAF:

METAR-TAF

Aéroports :

Aéroport de Florence-Peretola

Florence, Italie

latitude: 43-48N, longitude: 011-12E, altitude: 40 m

Observation

Le bulletin a été fait il y a 19 minutes, à 15:50 UTC
Vent 5 kt de nord-est
Température 5°C
Humidité 52%
Pression 1020 hPa
Visibilité 10 km ou plus
pas de nuages en-dessous de 1500 mètres et pas de cumulonimbus.

METAR: LIRQ 151550Z 04005KT CAVOK 05/M04 Q1020

Heure: 17:09 (16:09 UTC)

Prévision

Le bulletin a été fait il y a 5 heures et 9 minutes, à 11:00 UTC
Prévision valable du 15 à 12 UTC au 16 à 12 UTC
Vent 12 kt de nord/nord-est
Visibilité 10 km ou plus
pas de nuages en-dessous de 1500 mètres et pas de cumulonimbus.
Evoluant progressivement
du 15 à 16 UTC au 15 à 18 UTC
Vent 4 kt de direction variable

TAF: LIRQ 151100Z 1512/1612 02012KT CAVOK BECMG 1516/1518 VRB04KT

Observations et prévisions météorologiques de plus de 4000 aéroports (messages METAR et TAF).

Les stations disponibles sont représentées par des disques jaunes et rouges sur la carte.

Passer la souris dessus pour voir le nom de la station.

Cliquer dessus pour voir les observations et prévisions météorologiques.

Pour changer de carte: cliquez sur les boutons verts avec une croix noire pour zoomer, sur le bouton vert avec un tiret pour effectuer un zoom arrière, ou sur les flèches vertes pour les cartes adjacentes.


METAR-TAF: